createdAt,value
2023-04-08T00:00:02.700Z,4.2
2023-04-08T00:10:05.023Z,4
2023-04-08T00:30:09.667Z,3.6
2023-04-08T00:50:13.884Z,3.6
2023-04-08T01:10:18.382Z,3.2
2023-04-08T01:20:20.169Z,3
2023-04-08T01:30:22.073Z,2.7
2023-04-08T01:40:24.359Z,2.7
2023-04-08T01:50:26.429Z,2.6
2023-04-08T02:10:31.464Z,2.5
2023-04-08T02:20:33.286Z,2.4
2023-04-08T02:30:35.911Z,2.4
2023-04-08T02:40:37.974Z,2.3
2023-04-08T03:00:42.420Z,2.1
2023-04-08T03:20:46.775Z,1.8
2023-04-08T03:30:49.004Z,1.8
2023-04-08T03:40:51.169Z,1.7
2023-04-08T03:50:53.587Z,1.7
2023-04-08T04:00:56.113Z,1.7
2023-04-08T04:41:04.483Z,2
2023-04-08T04:51:06.969Z,2
2023-04-08T05:01:09.360Z,2.1
2023-04-08T05:11:11.899Z,2.2
2023-04-08T05:21:13.674Z,2.3
2023-04-08T05:31:15.612Z,2.4
2023-04-08T05:41:17.509Z,2.7
2023-04-08T05:51:19.573Z,2.7
2023-04-08T06:01:21.442Z,3.1
2023-04-08T06:11:24.096Z,3.2
2023-04-08T06:21:26.010Z,3.2
2023-04-08T06:31:28.592Z,3.4
2023-04-08T06:41:30.880Z,3.5
2023-04-08T06:51:32.708Z,3.6
2023-04-08T07:01:35.487Z,3.7
2023-04-08T07:11:37.670Z,4.1
2023-04-08T07:21:39.492Z,4.3
2023-04-08T07:31:41.319Z,4.7
2023-04-08T07:41:43.539Z,5
2023-04-08T07:51:45.864Z,5.3
2023-04-08T08:01:48.218Z,5.5
2023-04-08T08:11:50.379Z,5.9
2023-04-08T08:31:54.037Z,7
2023-04-08T08:41:56.483Z,7
2023-04-08T08:51:58.433Z,6.9
2023-04-08T09:02:00.726Z,6.9
2023-04-08T09:12:03.281Z,6.8
2023-04-08T09:22:05.462Z,6.9
2023-04-08T09:32:07.357Z,7.1
2023-04-08T09:42:09.856Z,7.3
2023-04-08T09:52:12.336Z,7.3
2023-04-08T10:02:14.236Z,7.6
2023-04-08T10:12:15.997Z,7.9
2023-04-08T10:22:18.670Z,8.1
2023-04-08T10:32:21.130Z,7.9
2023-04-08T10:42:23.358Z,8
2023-04-08T10:52:25.417Z,8.3
2023-04-08T11:02:27.181Z,8.2
2023-04-08T11:12:29.444Z,8.4
2023-04-08T11:22:31.150Z,8.6
2023-04-08T11:32:33.599Z,8.7
2023-04-08T11:42:35.382Z,9
2023-04-08T11:52:37.913Z,8.9
2023-04-08T12:02:39.731Z,9
2023-04-08T12:22:44.345Z,9.2
2023-04-08T12:32:46.364Z,9.4
2023-04-08T12:42:48.752Z,9.7
2023-04-08T12:52:51.146Z,9.8
2023-04-08T13:02:53.011Z,10.2
2023-04-08T13:12:55.363Z,10.3
2023-04-08T13:43:02.777Z,10.3
2023-04-08T13:53:05.368Z,10.6
2023-04-08T14:03:07.096Z,10.3
2023-04-08T14:13:08.878Z,10.4
2023-04-08T14:23:11.222Z,10.6
2023-04-08T14:33:13.009Z,10.7
2023-04-08T14:43:15.273Z,10.7
2023-04-08T14:53:17.916Z,10.7
2023-04-08T15:13:21.905Z,10.7
2023-04-08T15:33:25.639Z,10.7
2023-04-08T15:43:28.092Z,10.8
2023-04-08T15:53:30.493Z,10.8
2023-04-08T16:03:33.131Z,10.7
2023-04-08T16:13:35.660Z,10.6
2023-04-08T16:23:37.831Z,10.6
2023-04-08T16:33:40.076Z,10.6
2023-04-08T16:43:42.581Z,10.5
2023-04-08T16:53:44.592Z,10.5
2023-04-08T17:03:47.363Z,10.5
2023-04-08T17:13:49.524Z,10.3
2023-04-08T17:23:51.192Z,10.3
2023-04-08T17:33:53.244Z,10.3
2023-04-08T17:43:55.897Z,10.2
2023-04-08T18:04:01.375Z,10
2023-04-08T18:14:03.537Z,9.9
2023-04-08T18:24:05.548Z,9.9
2023-04-08T18:34:07.840Z,9.8
2023-04-08T18:44:09.814Z,9.8
2023-04-08T18:54:12.210Z,9.8
2023-04-08T19:04:14.742Z,9.7
2023-04-08T19:17:11.165Z,9.7
2023-04-08T19:24:28.365Z,9.6
2023-04-08T19:34:30.617Z,9.6
2023-04-08T19:44:33.269Z,9.5
2023-04-08T19:54:35.568Z,9.5
2023-04-08T20:14:39.627Z,9.2
2023-04-08T20:24:42.055Z,9.1
2023-04-08T20:34:43.972Z,8.9
2023-04-08T20:44:46.112Z,8.9
2023-04-08T20:54:48.042Z,8.8
2023-04-08T21:44:58.341Z,8.6
2023-04-08T21:55:00.456Z,8.5
2023-04-08T22:55:13.215Z,7.9
2023-04-08T23:05:15.425Z,7.7
2023-04-08T23:55:26.410Z,6.8
